Time;durP1;ratioP1;P1;durP2;ratioP2;P2;SDS_P1;SDS_P2;PMS_P1;PMS_P2;Temp;Humidity;BMP_temperature;BMP_pressure;BME280_temperature;BME280_humidity;BME280_pressure;Samples;Min_cycle;Max_cycle;Signal;HPM_P1;HPM_P2
2022/06/27 00:02:06;;;;;;;;;4.00;2.25;;;;;17.51;100.00;101126.50;5039327;28;45331;-87
2022/06/27 00:04:32;;;;;;;;;4.00;4.00;;;;;17.52;100.00;101130.03;5042133;28;45282;-87
2022/06/27 00:06:57;;;;;;;;;7.25;3.00;;;;;17.47;100.00;101125.94;5045361;28;44789;-86
2022/06/27 00:09:22;;;;;;;;;5.75;4.75;;;;;17.47;100.00;101131.31;5043969;28;46460;-87
2022/06/27 00:11:48;;;;;;;;;5.00;4.25;;;;;17.48;100.00;101133.00;5043746;28;44720;-87
2022/06/27 00:14:13;;;;;;;;;4.50;4.00;;;;;17.48;100.00;101137.50;5041598;28;45162;-88
2022/06/27 00:16:39;;;;;;;;;5.50;3.00;;;;;17.45;100.00;101140.47;5043299;28;45223;-87
2022/06/27 00:19:04;;;;;;;;;2.75;2.75;;;;;17.43;100.00;101135.25;5039347;28;45520;-86
2022/06/27 00:21:30;;;;;;;;;4.75;4.75;;;;;17.42;100.00;101148.81;5039101;28;44703;-86
2022/06/27 00:23:55;;;;;;;;;4.00;3.25;;;;;17.36;100.00;101141.31;5039051;28;44765;-87
2022/06/27 00:26:20;;;;;;;;;3.75;3.00;;;;;17.33;100.00;101138.88;5039799;28;45461;-87
2022/06/27 00:28:46;;;;;;;;;6.25;4.00;;;;;17.31;100.00;101133.66;5039840;28;45116;-87
2022/06/27 00:31:11;;;;;;;;;4.25;4.25;;;;;17.26;100.00;101132.34;5037821;28;44788;-87
2022/06/27 00:33:37;;;;;;;;;4.00;4.00;;;;;17.20;100.00;101128.38;5053693;28;44773;-86
2022/06/27 00:36:02;;;;;;;;;2.75;2.75;;;;;17.20;100.00;101120.31;5054253;28;45339;-87
2022/06/27 00:38:28;;;;;;;;;4.00;3.00;;;;;17.19;100.00;101122.16;5040433;28;45070;-87
2022/06/27 00:40:53;;;;;;;;;4.75;4.00;;;;;17.21;100.00;101133.63;5039951;28;44872;-87
2022/06/27 00:43:19;;;;;;;;;2.00;1.00;;;;;17.19;100.00;101130.22;5041697;28;44792;-87
2022/06/27 00:45:45;;;;;;;;;1.75;1.75;;;;;17.15;100.00;101123.41;5043421;28;44863;-86
2022/06/27 00:48:10;;;;;;;;;2.75;2.25;;;;;17.12;100.00;101122.84;5042653;28;45327;-86
2022/06/27 00:50:36;;;;;;;;;3.00;3.00;;;;;17.11;100.00;101129.19;5042362;28;44800;-87
2022/06/27 00:53:02;;;;;;;;;5.25;2.25;;;;;17.09;100.00;101118.59;5041836;28;44820;-86
2022/06/27 00:55:28;;;;;;;;;2.80;2.80;;;;;17.12;100.00;101125.53;5062594;28;45414;-87
2022/06/27 00:57:54;;;;;;;;;3.00;3.00;;;;;17.12;100.00;101128.22;5042467;28;47089;-86
2022/06/27 01:00:21;;;;;;;;;5.25;4.25;;;;;17.10;100.00;101133.72;5059995;28;44718;-86
2022/06/27 01:02:46;;;;;;;;;2.60;2.60;;;;;17.07;100.00;101135.84;5058178;28;45357;-86
2022/06/27 01:05:15;;;;;;;;;2.25;2.25;;;;;17.06;100.00;101140.34;5039649;28;44841;-82
2022/06/27 01:07:41;;;;;;;;;3.00;3.00;;;;;17.03;100.00;101129.03;5055278;28;45495;-82
2022/06/27 01:10:08;;;;;;;;;5.00;3.60;;;;;16.96;100.00;101137.59;5055590;28;45218;-82
2022/06/27 01:12:33;;;;;;;;;2.80;2.80;;;;;16.94;100.00;101142.28;5054791;28;45296;-82
2022/06/27 01:15:00;;;;;;;;;4.25;2.25;;;;;16.95;100.00;101140.44;5056112;28;44883;-82
2022/06/27 01:17:25;;;;;;;;;4.20;3.00;;;;;16.95;100.00;101135.91;5058034;28;45065;-82
2022/06/27 01:19:52;;;;;;;;;4.75;4.25;;;;;16.95;100.00;101140.44;5058238;28;45284;-82
2022/06/27 01:22:18;;;;;;;;;4.80;4.80;;;;;16.94;100.00;101146.78;5055780;28;45382;-82
2022/06/27 01:24:43;;;;;;;;;6.80;2.20;;;;;16.98;100.00;101153.59;5054769;28;44917;-82
2022/06/27 01:27:09;;;;;;;;;6.75;3.00;;;;;17.00;100.00;101156.97;5055807;28;45536;-82
2022/06/27 01:29:36;;;;;;;;;4.00;2.20;;;;;17.04;100.00;101160.25;5063198;28;44740;-86
2022/06/27 01:32:02;;;;;;;;;4.80;3.40;;;;;17.07;100.00;101162.69;5063435;28;45419;-87
2022/06/27 01:34:27;;;;;;;;;3.00;3.00;;;;;17.10;100.00;101163.25;5059393;28;45248;-86
2022/06/27 01:36:54;;;;;;;;;2.00;2.00;;;;;17.12;100.00;101166.66;5062760;28;45572;-86
2022/06/27 01:39:22;;;;;;;;;3.60;3.60;;;;;17.15;100.00;101165.53;5066780;28;45342;-87
2022/06/27 01:41:51;;;;;;;;;4.60;2.60;;;;;17.18;100.00;101162.59;5065218;28;44833;-86
2022/06/27 01:44:18;;;;;;;;;3.60;3.00;;;;;17.20;100.00;101155.22;5064138;28;44904;-86
2022/06/27 01:46:52;;;;;;;;;4.00;4.00;;;;;17.21;100.00;101152.44;5060910;28;46878;-86
2022/06/27 01:49:18;;;;;;;;;3.60;3.60;;;;;17.26;100.00;101151.16;5064842;28;44773;-87
2022/06/27 01:51:49;;;;;;;;;3.25;3.25;;;;;17.26;100.00;101159.19;5067859;28;45449;-82
2022/06/27 01:54:17;;;;;;;;;3.80;3.80;;;;;17.28;100.00;101151.88;5061467;28;45209;-82
2022/06/27 01:56:46;;;;;;;;;4.60;3.80;;;;;17.29;100.00;101142.84;5058263;28;45229;-82
2022/06/27 01:59:13;;;;;;;;;7.40;5.60;;;;;17.27;100.00;101144.81;5058616;28;45350;-82
2022/06/27 02:01:41;;;;;;;;;5.20;5.00;;;;;17.28;100.00;101135.75;5058694;28;45444;-84
2022/06/27 02:04:08;;;;;;;;;5.00;5.00;;;;;17.28;100.00;101138.44;5058592;28;44855;-84
2022/06/27 02:06:33;;;;;;;;;4.00;4.00;;;;;17.29;100.00;101137.47;5058451;28;45432;-84
2022/06/27 02:09:03;;;;;;;;;5.50;3.00;;;;;17.27;100.00;101137.59;5058349;28;44774;-83
2022/06/27 02:11:29;;;;;;;;;6.40;4.80;;;;;17.28;100.00;101133.09;5058530;28;45415;-84
2022/06/27 02:13:55;;;;;;;;;3.60;3.60;;;;;17.30;100.00;101125.72;5058393;28;45324;-83
2022/06/27 02:16:21;;;;;;;;;4.25;4.00;;;;;17.34;100.00;101133.38;5058733;28;45293;-83
2022/06/27 02:18:47;;;;;;;;;5.00;3.00;;;;;17.36;100.00;101122.50;5058515;28;44689;-83
2022/06/27 02:21:17;;;;;;;;;4.20;3.60;;;;;17.39;100.00;101124.91;5040656;28;45236;-83
2022/06/27 02:23:43;;;;;;;;;3.80;3.80;;;;;17.40;100.00;101121.22;5058875;28;45347;-84
2022/06/27 02:26:10;;;;;;;;;5.25;3.50;;;;;17.45;100.00;101132.41;5060438;28;45406;-84
2022/06/27 02:28:36;;;;;;;;;3.60;3.60;;;;;17.47;100.00;101138.50;5061250;28;44762;-83
2022/06/27 02:31:03;;;;;;;;;4.00;3.00;;;;;17.53;100.00;101142.47;5059235;28;44783;-84
2022/06/27 02:33:43;;;;;;;;;4.40;3.60;;;;;17.53;100.00;101146.00;5041549;28;45432;-84
2022/06/27 02:36:34;;;;;;;;;4.80;3.80;;;;;17.55;100.00;101146.75;5059759;28;45460;-85
2022/06/27 02:39:00;;;;;;;;;6.00;4.40;;;;;17.56;100.00;101136.84;5060593;28;44889;-83
2022/06/27 02:41:29;;;;;;;;;4.80;4.80;;;;;17.59;100.00;101142.75;5058976;28;44645;-83
2022/06/27 02:44:01;;;;;;;;;5.00;4.00;;;;;17.63;100.00;101151.41;5057572;28;44964;-84
2022/06/27 02:46:27;;;;;;;;;5.40;4.40;;;;;17.63;100.00;101146.88;5058573;28;45401;-84
2022/06/27 02:48:52;;;;;;;;;6.40;4.60;;;;;17.64;100.00;101145.03;5058141;28;45010;-84
2022/06/27 02:51:25;;;;;;;;;6.25;5.50;;;;;17.66;100.00;101152.00;5058271;28;45525;-84
2022/06/27 02:54:04;;;;;;;;;4.60;4.60;;;;;17.68;100.00;101154.53;5060616;28;45333;-84
2022/06/27 02:56:31;;;;;;;;;4.60;4.00;;;;;17.67;100.00;101151.00;5042102;28;45159;-84
2022/06/27 02:59:04;;;;;;;;;3.00;3.00;;;;;17.69;100.00;101162.44;5042162;28;45332;-84
2022/06/27 03:01:31;;;;;;;;;5.00;4.00;;;;;17.70;100.00;101155.25;5041022;28;45394;-83
2022/06/27 03:03:59;;;;;;;;;3.60;3.40;;;;;17.69;100.00;101148.16;5039807;28;44812;-84
2022/06/27 03:06:25;;;;;;;;;5.60;3.00;;;;;17.72;100.00;101150.56;5036939;28;45122;-84
2022/06/27 03:08:51;;;;;;;;;2.50;2.50;;;;;17.69;100.00;101138.25;5035256;28;45343;-83
2022/06/27 03:11:19;;;;;;;;;3.50;3.25;;;;;17.66;100.00;101135.88;5037402;28;44828;-83
2022/06/27 03:13:45;;;;;;;;;5.00;3.20;;;;;17.70;100.00;101144.50;5037238;28;45514;-83
2022/06/27 03:16:12;;;;;;;;;2.60;2.60;;;;;17.69;100.00;101132.03;5019523;28;45546;-83
2022/06/27 03:18:37;;;;;;;;;3.20;2.00;;;;;17.71;100.00;101122.00;5037475;28;45388;-83
2022/06/27 03:21:03;;;;;;;;;2.50;2.00;;;;;17.72;100.00;101131.78;5037258;28;45727;-84
2022/06/27 03:23:29;;;;;;;;;3.00;3.00;;;;;17.73;100.00;101137.03;5037627;28;45318;-84
2022/06/27 03:25:54;;;;;;;;;4.50;3.00;;;;;17.71;100.00;101136.28;5036896;28;45833;-83
2022/06/27 03:28:20;;;;;;;;;4.25;2.25;;;;;17.68;100.00;101123.13;5038179;28;45328;-83
2022/06/27 03:30:46;;;;;;;;;3.00;3.00;;;;;17.66;100.00;101127.81;5021026;28;45380;-84
2022/06/27 03:33:13;;;;;;;;;2.60;2.60;;;;;17.63;100.00;101113.78;5021068;28;44830;-83
2022/06/27 03:35:38;;;;;;;;;4.20;2.80;;;;;17.62;100.00;101120.16;5038990;28;45445;-83
2022/06/27 03:38:04;;;;;;;;;3.00;3.00;;;;;17.58;100.00;101121.41;5040161;28;45248;-83
2022/06/27 03:40:30;;;;;;;;;3.00;3.00;;;;;17.57;100.00;101119.72;5039867;28;45419;-83
2022/06/27 03:42:56;;;;;;;;;2.60;2.60;;;;;17.56;100.00;101121.56;5037670;28;45324;-83
2022/06/27 03:45:21;;;;;;;;;2.00;2.00;;;;;17.57;100.00;101117.88;5038771;28;45629;-83
2022/06/27 03:47:51;;;;;;;;;4.00;3.00;;;;;17.56;100.00;101131.47;5040339;28;45328;-83
2022/06/27 03:50:18;;;;;;;;;6.20;3.00;;;;;17.53;100.00;101132.56;5038830;28;45499;-83
2022/06/27 03:52:44;;;;;;;;;2.40;2.40;;;;;17.54;100.00;101136.09;5037866;28;45327;-83
2022/06/27 03:55:11;;;;;;;;;2.60;2.60;;;;;17.55;100.00;101145.88;5037264;28;45447;-83
2022/06/27 03:57:38;;;;;;;;;3.00;3.00;;;;;17.53;100.00;101147.84;5037543;28;45500;-83
2022/06/27 04:00:09;;;;;;;;;3.80;3.00;;;;;17.54;100.00;101144.16;5018894;28;45452;-83
2022/06/27 04:02:35;;;;;;;;;2.60;2.60;;;;;17.55;100.00;101133.31;5036075;28;45227;-83
2022/06/27 04:05:03;;;;;;;;;3.00;3.00;;;;;17.54;100.00;101147.69;5037136;28;45149;-83
2022/06/27 04:07:29;;;;;;;;;5.00;3.80;;;;;17.57;100.00;101143.91;5037949;28;45224;-83
2022/06/27 04:09:55;;;;;;;;;4.25;2.50;;;;;17.55;100.00;101137.81;5037966;28;45391;-84
2022/06/27 04:12:20;;;;;;;;;5.20;3.20;;;;;17.51;100.00;101144.47;5040522;28;45538;-83
2022/06/27 04:14:46;;;;;;;;;7.50;4.00;;;;;17.51;100.00;101163.28;5045527;28;45316;-89
2022/06/27 04:17:11;;;;;;;;;2.50;2.50;;;;;17.46;100.00;101161.00;5037737;28;44692;-91
2022/06/27 04:19:37;;;;;;;;;3.75;3.75;;;;;17.43;100.00;101166.63;5034557;28;44721;-91
2022/06/27 04:22:03;;;;;;;;;4.00;4.00;;;;;17.39;100.00;101174.09;5039305;28;44869;-84
2022/06/27 04:24:28;;;;;;;;;6.25;5.00;;;;;17.39;100.00;101170.56;5037528;28;45420;-84
2022/06/27 04:26:53;;;;;;;;;3.00;3.00;;;;;17.33;100.00;101176.50;5037629;28;44890;-84
2022/06/27 04:29:19;;;;;;;;;3.00;3.00;;;;;17.33;100.00;101187.22;5037383;28;45359;-83
2022/06/27 04:31:44;;;;;;;;;3.00;3.00;;;;;17.31;100.00;101200.81;5037123;28;45431;-84
2022/06/27 04:34:12;;;;;;;;;4.75;3.75;;;;;17.23;100.00;101191.72;5036752;28;45124;-84
2022/06/27 04:36:38;;;;;;;;;4.20;4.20;;;;;17.16;100.00;101205.69;5037493;28;45334;-84
2022/06/27 04:39:04;;;;;;;;;4.00;4.00;;;;;17.16;100.00;101212.88;5041407;28;45297;-84
2022/06/27 04:41:29;;;;;;;;;4.00;3.00;;;;;17.21;100.00;101218.69;5037330;28;45206;-84
2022/06/27 04:43:55;;;;;;;;;6.25;4.50;;;;;17.23;100.00;101223.94;5037866;28;45188;-84
2022/06/27 04:46:21;;;;;;;;;2.40;2.40;;;;;17.27;100.00;101228.06;5039564;28;45225;-83
2022/06/27 04:48:48;;;;;;;;;4.00;4.00;;;;;17.27;100.00;101218.16;5041702;28;45356;-84
2022/06/27 04:51:14;;;;;;;;;5.40;4.00;;;;;17.28;100.00;101205.59;5024487;28;45578;-83
2022/06/27 04:53:40;;;;;;;;;5.80;4.40;;;;;17.25;100.00;101193.25;5043081;28;45096;-83
2022/06/27 04:56:06;;;;;;;;;5.20;3.40;;;;;17.20;100.00;101193.66;5041512;28;44742;-83
2022/06/27 04:58:32;;;;;;;;;4.00;4.00;;;;;17.25;100.00;101203.16;5020432;28;45397;-83
2022/06/27 05:00:57;;;;;;;;;4.25;4.25;;;;;17.25;100.00;101198.63;5020056;28;45314;-83
2022/06/27 05:03:23;;;;;;;;;2.25;2.00;;;;;17.20;100.00;101184.75;5037868;28;45099;-83
2022/06/27 05:05:52;;;;;;;;;4.25;4.25;;;;;17.20;100.00;101171.34;5037819;28;45415;-83
2022/06/27 05:08:18;;;;;;;;;2.20;2.20;;;;;17.27;100.00;101153.72;5037085;28;44893;-83
2022/06/27 05:10:43;;;;;;;;;8.50;4.00;;;;;17.30;100.00;101158.81;5038186;28;44769;-84
2022/06/27 05:13:09;;;;;;;;;3.00;3.00;;;;;17.32;100.00;101166.75;5042202;28;45266;-83
2022/06/27 05:15:36;;;;;;;;;2.25;2.25;;;;;17.36;100.00;101187.81;5046345;28;45463;-83
2022/06/27 05:18:03;;;;;;;;;5.00;5.00;;;;;17.42;100.00;101189.09;5045733;28;44670;-82
2022/06/27 05:20:30;;;;;;;;;5.00;5.00;;;;;17.49;100.00;101192.94;5045896;28;45491;-84
2022/06/27 05:23:00;;;;;;;;;4.60;3.40;;;;;17.56;100.00;101179.81;5042779;28;46765;-84
2022/06/27 05:25:25;;;;;;;;;5.00;5.00;;;;;17.64;100.00;101182.66;5041880;28;44813;-84
2022/06/27 05:27:51;;;;;;;;;6.25;3.25;;;;;17.71;100.00;101170.38;5039670;28;45425;-84
2022/06/27 05:30:16;;;;;;;;;5.00;4.00;;;;;17.82;100.00;101170.28;5041328;28;45474;-83
2022/06/27 05:32:42;;;;;;;;;4.25;4.25;;;;;17.91;100.00;101190.13;5042005;28;45350;-84
2022/06/27 05:35:08;;;;;;;;;4.00;4.00;;;;;18.08;100.00;101204.69;5046948;28;44810;-82
2022/06/27 05:37:43;;;;;;;;;4.00;4.00;;;;;18.19;100.00;101183.06;5044551;28;44726;-83
2022/06/27 05:40:09;;;;;;;;;5.00;5.00;;;;;18.32;100.00;101175.53;5042529;28;44959;-83
2022/06/27 05:42:35;;;;;;;;;4.00;4.00;;;;;18.39;100.00;101192.00;5042318;28;45303;-83
2022/06/27 05:45:02;;;;;;;;;5.00;3.00;;;;;18.34;100.00;101213.94;5039475;28;44741;-82
2022/06/27 05:47:28;;;;;;;;;8.60;6.00;;;;;18.19;100.00;101202.75;5038514;28;45260;-83
2022/06/27 05:49:54;;;;;;;;;8.40;6.40;;;;;18.12;100.00;101212.34;5039434;28;45486;-83
2022/06/27 05:52:20;;;;;;;;;8.50;5.25;;;;;17.93;100.00;101212.31;5038640;28;45263;-83
2022/06/27 05:54:46;;;;;;;;;5.00;5.00;;;;;17.72;100.00;101213.25;5039335;28;45003;-83
2022/06/27 05:57:14;;;;;;;;;5.00;5.00;;;;;17.73;100.00;101232.94;5022114;28;44906;-82
2022/06/27 05:59:40;;;;;;;;;4.40;4.20;;;;;17.67;100.00;101228.91;5043502;28;44739;-82
2022/06/27 06:02:06;;;;;;;;;9.25;5.00;;;;;17.65;100.00;101228.22;5039271;28;45017;-82
2022/06/27 06:04:32;;;;;;;;;5.00;5.00;;;;;17.68;100.00;101229.75;5038762;28;44740;-81
2022/06/27 06:06:58;;;;;;;;;4.80;4.00;;;;;17.72;100.00;101233.88;5039029;28;45308;-81
2022/06/27 06:09:23;;;;;;;;;3.25;3.25;;;;;17.77;100.00;101249.63;5039193;28;45407;-82
2022/06/27 06:11:51;;;;;;;;;3.00;3.00;;;;;17.80;100.00;101250.22;5041830;28;46028;-82
2022/06/27 06:14:19;;;;;;;;;5.80;3.80;;;;;17.83;100.00;101239.19;5043539;28;44811;-82
2022/06/27 06:16:46;;;;;;;;;3.40;3.40;;;;;17.84;100.00;101238.22;5039845;28;45081;-81
2022/06/27 06:19:12;;;;;;;;;2.80;2.00;;;;;17.71;100.00;101226.81;5037588;28;45463;-82
2022/06/27 06:21:38;;;;;;;;;3.00;3.00;;;;;17.67;100.00;101207.41;5037762;28;45129;-81
2022/06/27 06:24:04;;;;;;;;;6.20;3.60;;;;;17.69;100.00;101209.97;5037952;28;44773;-84
2022/06/27 06:26:29;;;;;;;;;5.50;4.00;;;;;17.78;100.00;101222.63;5020785;28;45531;-84
2022/06/27 06:28:55;;;;;;;;;4.00;4.00;;;;;17.97;100.00;101252.22;5038752;28;44767;-85
2022/06/27 06:31:22;;;;;;;;;4.00;4.00;;;;;18.10;100.00;101262.75;5039091;28;45253;-85
2022/06/27 06:33:50;;;;;;;;;10.00;5.60;;;;;18.18;100.00;101253.97;5041653;28;44726;-85
2022/06/27 06:36:17;;;;;;;;;6.20;4.00;;;;;18.27;100.00;101250.44;5043800;28;44886;-84
2022/06/27 06:38:43;;;;;;;;;2.20;2.20;;;;;18.23;100.00;101267.88;5044586;28;45348;-84
2022/06/27 06:41:08;;;;;;;;;3.00;3.00;;;;;18.22;100.00;101258.06;5046341;28;45672;-85
2022/06/27 06:43:34;;;;;;;;;5.00;3.75;;;;;18.23;100.00;101246.34;5046508;28;44766;-84
2022/06/27 06:45:59;;;;;;;;;3.25;3.00;;;;;18.12;100.00;101249.16;5041630;28;44809;-85
2022/06/27 06:48:25;;;;;;;;;4.00;2.75;;;;;18.14;100.00;101248.03;5042375;28;44813;-87
2022/06/27 06:50:52;;;;;;;;;4.40;3.40;;;;;18.26;100.00;101258.66;5041659;28;45285;-84
2022/06/27 06:53:17;;;;;;;;;4.20;3.20;;;;;18.33;100.00;101268.72;5041553;28;44779;-84
2022/06/27 06:55:42;;;;;;;;;2.75;2.25;;;;;18.37;100.00;101272.84;5045517;28;44927;-84
2022/06/27 06:58:09;;;;;;;;;2.75;2.25;;;;;18.41;100.00;101276.94;5044535;28;45388;-85
2022/06/27 07:00:35;;;;;;;;;2.40;2.20;;;;;18.26;100.00;101281.03;5045374;28;44989;-85
2022/06/27 07:03:02;;;;;;;;;4.00;4.00;;;;;18.19;100.00;101288.81;5042937;28;44680;-84
2022/06/27 07:05:28;;;;;;;;;5.60;4.60;;;;;18.24;100.00;101297.31;5042186;28;45473;-85
2022/06/27 07:07:53;;;;;;;;;8.00;4.00;;;;;18.22;100.00;101301.94;5044937;28;45534;-85
2022/06/27 07:10:20;;;;;;;;;3.75;3.75;;;;;18.05;100.00;101326.00;5041536;28;45154;-84
2022/06/27 07:12:46;;;;;;;;;5.20;5.20;;;;;17.90;100.00;101331.75;5041453;28;45335;-84
2022/06/27 07:15:12;;;;;;;;;5.00;4.25;;;;;17.78;100.00;101340.88;5056779;28;44739;-84
2022/06/27 07:17:45;;;;;;;;;4.20;4.20;;;;;17.70;100.00;101336.16;5039172;28;44762;-84
2022/06/27 07:20:12;;;;;;;;;5.80;5.00;;;;;17.86;100.00;101332.16;5038329;28;45236;-85
2022/06/27 07:22:39;;;;;;;;;4.00;4.00;;;;;17.76;100.00;101336.63;5039857;28;45286;-84
2022/06/27 07:25:05;;;;;;;;;6.20;4.20;;;;;17.80;100.00;101341.59;5053941;28;45385;-84
2022/06/27 07:27:31;;;;;;;;;4.80;2.40;;;;;17.62;100.00;101337.81;5038677;28;45492;-84
2022/06/27 07:29:57;;;;;;;;;2.00;2.00;;;;;17.56;100.00;101330.28;5038555;28;45131;-84
2022/06/27 07:32:23;;;;;;;;;4.40;4.40;;;;;17.59;100.00;101328.16;5040093;28;45350;-84
2022/06/27 07:34:48;;;;;;;;;2.25;1.50;;;;;17.58;100.00;101323.78;5042058;28;44760;-86
2022/06/27 07:37:14;;;;;;;;;7.75;4.00;;;;;17.58;100.00;101329.16;5039584;28;44891;-86
2022/06/27 07:39:40;;;;;;;;;6.25;4.00;;;;;17.58;100.00;101333.69;5038367;28;45338;-85
2022/06/27 07:42:06;;;;;;;;;4.40;4.40;;;;;17.69;100.00;101323.69;5038664;28;44746;-85
2022/06/27 07:44:34;;;;;;;;;7.25;3.75;;;;;17.98;100.00;101323.81;5040638;28;45332;-85
2022/06/27 07:47:03;;;;;;;;;2.00;2.00;;;;;18.35;100.00;101330.44;5041417;28;44783;-85
2022/06/27 07:49:29;;;;;;;;;4.60;3.80;;;;;18.60;100.00;101321.00;5038033;28;45341;-84
2022/06/27 07:51:54;;;;;;;;;5.00;5.00;;;;;18.77;100.00;101330.25;5042198;28;45292;-86
2022/06/27 07:54:19;;;;;;;;;4.00;4.00;;;;;19.08;100.00;101321.03;5007632;28;44922;-85
2022/06/27 07:56:46;;;;;;;;;3.00;3.00;;;;;19.06;100.00;101323.03;5039863;28;45363;-85
2022/06/27 07:59:13;;;;;;;;;4.80;4.00;;;;;18.93;100.00;101338.59;5039681;28;45118;-85
2022/06/27 08:01:40;;;;;;;;;3.00;3.00;;;;;19.30;100.00;101333.34;5040935;28;45400;-84
2022/06/27 08:04:07;;;;;;;;;3.20;3.20;;;;;19.47;100.00;101332.56;5039591;28;44751;-82
2022/06/27 08:06:33;;;;;;;;;4.00;4.00;;;;;19.39;100.00;101328.91;5037350;28;45377;-82
2022/06/27 08:09:01;;;;;;;;;1.00;1.00;;;;;19.45;100.00;101336.41;5037090;28;45878;-82
2022/06/27 08:11:28;;;;;;;;;2.00;2.00;;;;;19.35;100.00;101339.13;5037879;28;44807;-82
2022/06/27 08:13:56;;;;;;;;;2.60;2.60;;;;;19.30;100.00;101324.41;5037304;28;44723;-82
2022/06/27 08:16:24;;;;;;;;;2.00;2.00;;;;;19.30;100.00;101332.50;5018952;28;45371;-82
2022/06/27 08:18:51;;;;;;;;;2.80;2.00;;;;;19.47;100.00;101340.66;5036798;28;45409;-82
2022/06/27 08:21:20;;;;;;;;;4.00;2.20;;;;;19.62;100.00;101341.06;5040959;28;45213;-84
2022/06/27 08:23:46;;;;;;;;;5.40;4.00;;;;;19.56;100.00;101349.72;5043226;28;44805;-83
2022/06/27 08:26:13;;;;;;;;;2.60;2.60;;;;;19.24;100.00;101348.25;5037238;28;45606;-82
2022/06/27 08:28:40;;;;;;;;;3.60;3.00;;;;;18.93;100.00;101373.63;5040733;28;45380;-82
2022/06/27 08:31:08;;;;;;;;;2.40;2.40;;;;;18.77;100.00;101376.03;5038982;28;45217;-83
2022/06/27 08:33:35;;;;;;;;;3.00;3.00;;;;;18.62;100.00;101365.63;5038101;28;44721;-82
2022/06/27 08:36:02;;;;;;;;;9.80;3.40;;;;;18.97;100.00;101358.88;5038341;28;45420;-83
2022/06/27 08:38:29;;;;;;;;;2.00;2.00;;;;;19.26;100.00;101369.63;5037531;28;45692;-82
2022/06/27 08:40:56;;;;;;;;;3.00;1.00;;;;;19.35;100.00;101365.22;5037811;28;44832;-82
2022/06/27 08:43:22;;;;;;;;;2.40;2.20;;;;;19.51;100.00;101377.09;5037693;28;44846;-83
2022/06/27 08:45:50;;;;;;;;;4.00;4.00;;;;;19.13;100.00;101387.94;5037771;28;45198;-81
2022/06/27 08:48:16;;;;;;;;;2.40;2.00;;;;;18.73;100.00;101381.69;5035965;28;45493;-82
2022/06/27 08:50:43;;;;;;;;;2.25;2.25;;;;;18.39;100.00;101385.69;5037085;28;44811;-82
2022/06/27 08:53:12;;;;;;;;;3.00;2.00;;;;;18.38;100.00;101384.00;5036172;28;45551;-82
2022/06/27 08:55:44;;;;;;;;;2.00;1.20;;;;;18.59;100.00;101383.88;5027672;28;45242;-83
2022/06/27 08:58:10;;;;;;;;;4.00;2.20;;;;;18.86;100.00;101391.34;5003044;28;46150;-83
2022/06/27 09:00:40;;;;;;;;;0.40;0.40;;;;;18.98;100.00;101380.28;5016417;28;45424;-83
2022/06/27 09:03:07;;;;;;;;;1.00;1.00;;;;;19.38;100.00;101375.69;5015103;28;44847;-83
2022/06/27 09:05:33;;;;;;;;;1.60;1.60;;;;;19.42;100.00;101374.44;5016316;28;45552;-83
2022/06/27 09:08:02;;;;;;;;;1.00;0.80;;;;;19.60;100.00;101367.34;5022865;28;45393;-83
2022/06/27 09:10:42;;;;;;;;;3.00;1.40;;;;;19.78;100.00;101364.72;5031830;28;45459;-82
2022/06/27 09:13:13;;;;;;;;;3.20;2.00;;;;;20.19;100.00;101362.56;5035792;28;44862;-83
2022/06/27 09:15:46;;;;;;;;;1.60;1.60;;;;;20.60;100.00;101354.94;5026056;28;44733;-83
2022/06/27 09:18:14;;;;;;;;;2.80;1.20;;;;;20.92;100.00;101355.28;5037783;28;45561;-83
2022/06/27 09:20:52;;;;;;;;;1.20;1.20;;;;;21.11;100.00;101369.63;5035461;28;44688;-83
2022/06/27 09:23:50;;;;;;;;;1.40;1.00;;;;;21.07;100.00;101360.13;5038312;28;44858;-82
2022/06/27 09:26:19;;;;;;;;;2.00;2.00;;;;;21.16;100.00;101357.34;5018655;28;44802;-82
2022/06/27 09:28:50;;;;;;;;;1.00;1.00;;;;;20.90;100.00;101360.00;5017362;28;45356;-83
2022/06/27 09:31:35;;;;;;;;;1.00;1.00;;;;;20.78;100.00;101355.81;5019007;28;45164;-82
2022/06/27 09:34:19;;;;;;;;;4.00;1.40;;;;;20.78;100.00;101362.06;5016085;28;45368;-82
2022/06/27 09:36:51;;;;;;;;;1.80;1.20;;;;;20.70;100.00;101356.59;5016186;28;45434;-82
2022/06/27 09:39:36;;;;;;;;;1.20;0.00;;;;;20.63;100.00;101363.59;5016425;28;45296;-83
2022/06/27 09:42:07;;;;;;;;;1.60;1.60;;;;;20.79;100.00;101360.19;5016081;28;44731;-82
2022/06/27 09:44:35;;;;;;;;;1.00;1.00;;;;;20.93;100.00;101358.81;4998022;28;45187;-83
2022/06/27 09:47:03;;;;;;;;;1.00;1.00;;;;;20.88;100.00;101355.72;5016143;28;44842;-82
2022/06/27 09:49:37;;;;;;;;;0.60;0.60;;;;;20.79;100.00;101362.91;5016570;28;45376;-82
2022/06/27 09:52:05;;;;;;;;;2.00;1.00;;;;;20.79;100.00;101358.38;5017012;28;44931;-82
2022/06/27 09:54:33;;;;;;;;;1.40;1.40;;;;;20.97;100.00;101362.91;5020621;28;44819;-84
2022/06/27 09:56:59;;;;;;;;;1.00;1.00;;;;;21.23;100.00;101363.00;5039230;28;45194;-84
2022/06/27 09:59:25;;;;;;;;;1.20;0.40;;;;;21.18;100.00;101354.50;5041849;28;45465;-83
2022/06/27 10:01:53;;;;;;;;;2.50;2.00;;;;;21.39;100.00;101357.72;5045730;28;44726;-84
2022/06/27 10:04:21;;;;;;;;;1.80;1.00;;;;;20.98;95.86;101367.31;5044478;28;44791;-84
2022/06/27 10:06:48;;;;;;;;;2.00;0.00;;;;;21.08;96.87;101357.28;5022896;28;44885;-83
2022/06/27 10:09:15;;;;;;;;;1.80;1.80;;;;;21.29;97.54;101365.06;5040247;28;45437;-84
2022/06/27 10:11:40;;;;;;;;;0.20;0.20;;;;;21.02;96.71;101358.75;5021587;28;44814;-84
2022/06/27 10:14:20;;;;;;;;;1.00;0.00;;;;;21.13;96.87;101364.91;5040027;28;44722;-84
2022/06/27 10:16:50;;;;;;;;;1.40;0.80;;;;;20.89;95.29;101371.81;5040013;28;45401;-83
2022/06/27 10:19:15;;;;;;;;;0.40;0.40;;;;;21.15;91.60;101368.31;5040527;28;45555;-85
2022/06/27 10:21:45;;;;;;;;;3.25;0.25;;;;;21.05;88.68;101379.22;5040036;28;45222;-84
2022/06/27 10:24:19;;;;;;;;;2.80;1.00;;;;;20.65;89.84;101388.63;5040760;28;44871;-84
2022/06/27 10:26:46;;;;;;;;;2.40;1.20;;;;;20.60;91.33;101381.94;5029032;28;45458;-84
2022/06/27 10:29:27;;;;;;;;;0.80;0.00;;;;;20.95;92.49;101367.63;5028979;28;46814;-84
2022/06/27 10:31:53;;;;;;;;;1.40;1.40;;;;;21.37;93.08;101373.28;5044118;28;44829;-85
2022/06/27 10:34:46;;;;;;;;;2.25;0.50;;;;;21.72;90.62;101371.47;5043094;28;45547;-85
2022/06/27 10:37:21;;;;;;;;;0.00;0.00;;;;;21.71;88.01;101375.16;5035271;28;45289;-84
2022/06/27 10:39:48;;;;;;;;;2.00;2.00;;;;;21.68;87.21;101380.91;5045252;28;45313;-83
2022/06/27 10:42:51;;;;;;;;;1.00;1.00;;;;;21.51;89.18;101380.78;5041612;28;45336;-84
2022/06/27 10:45:19;;;;;;;;;3.60;1.00;;;;;21.49;94.06;101385.50;5048972;28;44819;-84
2022/06/27 10:47:45;;;;;;;;;1.20;1.20;;;;;21.50;95.73;101386.34;5051834;28;44833;-84
2022/06/27 10:50:12;;;;;;;;;1.00;1.00;;;;;21.40;98.40;101372.94;5024719;28;46658;-84
2022/06/27 10:52:37;;;;;;;;;3.00;1.00;;;;;21.05;100.00;101377.34;5039762;28;45379;-84
2022/06/27 10:55:23;;;;;;;;;2.50;1.00;;;;;21.03;100.00;101382.06;5044767;28;45371;-84
2022/06/27 10:57:48;;;;;;;;;4.00;1.20;;;;;21.40;100.00;101381.03;5028651;28;45288;-84
2022/06/27 11:00:35;;;;;;;;;1.00;1.00;;;;;21.41;100.00;101376.47;5021965;28;45385;-84
2022/06/27 11:03:01;;;;;;;;;3.00;2.00;;;;;21.98;100.00;101376.84;5003113;28;44791;-84
2022/06/27 11:05:29;;;;;;;;;1.25;1.00;;;;;22.37;98.27;101377.22;5035995;28;44774;-85
2022/06/27 11:07:54;;;;;;;;;3.40;1.00;;;;;22.02;98.43;101375.50;5042424;28;44896;-84
2022/06/27 11:10:24;;;;;;;;;1.00;1.00;;;;;22.37;97.83;101371.78;5021024;28;45582;-84
2022/06/27 11:12:49;;;;;;;;;2.20;2.00;;;;;22.17;98.94;101367.66;5039191;28;44790;-84
2022/06/27 11:15:15;;;;;;;;;1.00;1.00;;;;;21.94;98.35;101373.59;5042154;28;44807;-84
2022/06/27 11:17:43;;;;;;;;;1.00;1.00;;;;;22.14;99.25;101373.38;5038190;28;45263;-84
2022/06/27 11:20:09;;;;;;;;;1.00;1.00;;;;;22.67;95.55;101364.09;5038330;28;45546;-84